createdAt,value
2024-01-25T00:00:30.025Z,1.00
2024-01-25T00:01:02.030Z,1.00
2024-01-25T00:01:34.617Z,1.00
2024-01-25T00:02:10.910Z,1.00
2024-01-25T00:02:44.610Z,1.00
2024-01-25T00:03:17.905Z,1.00
2024-01-25T00:03:49.805Z,1.00
2024-01-25T00:04:21.936Z,1.00
2024-01-25T00:04:54.273Z,1.00
2024-01-25T00:05:28.962Z,1.00
2024-01-25T00:06:09.798Z,1.00
2024-01-25T00:06:43.636Z,1.00
2024-01-25T00:07:16.238Z,1.00
2024-01-25T00:07:48.958Z,1.00
2024-01-25T00:08:20.969Z,1.00
2024-01-25T00:08:54.169Z,1.00
2024-01-25T00:09:25.925Z,1.00
2024-01-25T00:09:59.630Z,1.00
2024-01-25T00:10:31.860Z,1.00
2024-01-25T00:11:04.509Z,1.00
2024-01-25T00:11:36.888Z,1.00
2024-01-25T00:12:08.837Z,1.00
2024-01-25T00:12:40.867Z,1.00
2024-01-25T00:13:13.720Z,1.00
2024-01-25T00:13:48.585Z,1.00
2024-01-25T00:14:20.467Z,1.00
2024-01-25T00:14:53.642Z,1.00
2024-01-25T00:15:25.502Z,1.00
2024-01-25T00:15:57.457Z,1.00
2024-01-25T00:16:29.355Z,1.00
2024-01-25T00:17:01.273Z,1.00
2024-01-25T00:17:33.206Z,1.00
2024-01-25T00:18:06.361Z,1.00
2024-01-25T00:18:38.470Z,1.00
2024-01-25T00:19:11.899Z,1.00
2024-01-25T00:19:46.751Z,1.00
2024-01-25T00:20:18.837Z,1.00
2024-01-25T00:20:51.150Z,1.00
2024-01-25T00:21:23.011Z,1.00
2024-01-25T00:21:54.955Z,1.00
2024-01-25T00:22:27.677Z,1.00
2024-01-25T00:22:59.582Z,1.00
2024-01-25T00:23:32.676Z,1.00
2024-01-25T00:24:05.015Z,1.00
2024-01-25T00:24:38.316Z,1.00
2024-01-25T00:25:10.343Z,1.00
2024-01-25T00:25:42.480Z,1.00
2024-01-25T00:26:14.453Z,1.00
2024-01-25T00:26:49.630Z,1.00
2024-01-25T00:27:21.862Z,1.00
2024-01-25T00:27:54.261Z,1.00
2024-01-25T00:28:27.022Z,1.00
2024-01-25T00:28:59.421Z,1.00
2024-01-25T00:29:32.578Z,1.00
2024-01-25T00:30:06.180Z,1.00
2024-01-25T00:30:38.250Z,1.00
2024-01-25T00:31:10.113Z,1.00
2024-01-25T00:31:42.607Z,1.00
2024-01-25T00:32:14.782Z,1.00
2024-01-25T00:32:46.874Z,1.00
2024-01-25T00:33:19.399Z,1.00
2024-01-25T00:33:51.668Z,1.00
2024-01-25T00:34:23.942Z,1.00
2024-01-25T00:34:56.101Z,1.00
2024-01-25T00:35:28.715Z,1.00
2024-01-25T00:36:00.954Z,1.00
2024-01-25T00:36:33.042Z,1.00
2024-01-25T00:37:05.076Z,1.00
2024-01-25T00:37:37.789Z,1.00
2024-01-25T00:38:10.474Z,1.00
2024-01-25T00:38:42.648Z,1.00
2024-01-25T00:39:14.565Z,1.00
2024-01-25T00:39:46.647Z,1.00
2024-01-25T00:40:19.672Z,1.00
2024-01-25T00:40:51.955Z,1.00
2024-01-25T00:41:24.418Z,1.00
2024-01-25T00:42:03.428Z,1.00
2024-01-25T00:42:57.065Z,1.00
2024-01-25T00:43:29.300Z,1.00
2024-01-25T00:44:02.209Z,1.00
2024-01-25T00:44:34.473Z,1.00
2024-01-25T00:45:06.675Z,1.00
2024-01-25T00:45:39.041Z,1.00
2024-01-25T00:46:11.442Z,1.00
2024-01-25T00:46:44.378Z,1.00
2024-01-25T00:47:17.005Z,1.00
2024-01-25T00:47:49.128Z,1.00
2024-01-25T00:48:22.582Z,1.00
2024-01-25T00:48:54.718Z,1.00
2024-01-25T00:49:27.129Z,1.00
2024-01-25T00:49:59.388Z,1.00
2024-01-25T00:50:31.627Z,1.00
2024-01-25T00:51:08.156Z,1.00
2024-01-25T00:51:47.315Z,1.00
2024-01-25T00:52:19.360Z,1.00
2024-01-25T00:52:53.897Z,1.00
2024-01-25T00:53:26.085Z,1.00
2024-01-25T00:53:57.963Z,1.00
2024-01-25T00:54:30.469Z,1.00
2024-01-25T00:55:03.847Z,1.00
2024-01-25T00:55:35.898Z,1.00
2024-01-25T00:56:08.276Z,1.00
2024-01-25T00:56:40.216Z,1.00
2024-01-25T00:57:12.482Z,1.00
2024-01-25T00:57:44.947Z,1.00
2024-01-25T00:58:17.371Z,1.00
2024-01-25T00:58:53.496Z,1.00
2024-01-25T00:59:25.945Z,1.00
2024-01-25T00:59:58.098Z,1.00
2024-01-25T01:00:30.268Z,1.00
2024-01-25T01:01:03.000Z,1.00
2024-01-25T01:01:35.186Z,1.00
2024-01-25T01:02:12.377Z,1.00
2024-01-25T01:02:45.127Z,1.00
2024-01-25T01:03:19.448Z,1.00
2024-01-25T01:03:54.329Z,1.00
2024-01-25T01:04:27.964Z,1.00
2024-01-25T01:05:00.382Z,1.00
2024-01-25T01:05:32.919Z,1.00
2024-01-25T01:06:05.345Z,1.00
2024-01-25T01:06:37.963Z,1.00
2024-01-25T01:07:15.400Z,1.00
2024-01-25T01:07:47.868Z,1.00
2024-01-25T01:08:20.077Z,1.00
2024-01-25T01:08:52.204Z,1.00
2024-01-25T01:09:24.064Z,1.00
2024-01-25T01:09:56.025Z,1.00
2024-01-25T01:10:28.013Z,1.00
2024-01-25T01:10:59.956Z,1.00
2024-01-25T01:11:33.421Z,1.00
2024-01-25T01:12:05.526Z,1.00
2024-01-25T01:12:40.065Z,1.00
2024-01-25T01:13:13.081Z,1.00
2024-01-25T01:13:44.968Z,1.00
2024-01-25T01:14:17.164Z,1.00
2024-01-25T01:14:49.345Z,1.00
2024-01-25T01:15:21.264Z,1.00
2024-01-25T01:15:54.549Z,1.00
2024-01-25T01:16:26.668Z,1.00
2024-01-25T01:16:58.650Z,1.00
2024-01-25T01:17:30.706Z,1.00
2024-01-25T01:18:02.671Z,1.00
2024-01-25T01:18:34.782Z,1.00
2024-01-25T01:19:09.320Z,1.00
2024-01-25T01:19:41.414Z,1.00
2024-01-25T01:20:13.486Z,1.00
2024-01-25T01:20:47.284Z,1.00
2024-01-25T01:21:19.359Z,1.00
2024-01-25T01:21:51.350Z,1.00
2024-01-25T01:22:24.059Z,1.00
2024-01-25T01:22:56.150Z,1.00
2024-01-25T01:23:30.996Z,1.00
2024-01-25T01:24:30.435Z,1.00
2024-01-25T01:25:08.413Z,1.00
2024-01-25T01:25:40.487Z,1.00
2024-01-25T01:26:12.557Z,1.00
2024-01-25T01:26:45.524Z,1.00
2024-01-25T01:27:17.470Z,1.00
2024-01-25T01:27:51.630Z,1.00
2024-01-25T01:28:24.893Z,1.00
2024-01-25T01:28:57.245Z,1.00
2024-01-25T01:29:30.054Z,1.00
2024-01-25T01:30:02.082Z,1.00
2024-01-25T01:30:34.102Z,1.00
2024-01-25T01:31:07.138Z,1.00
2024-01-25T01:31:39.617Z,1.00
2024-01-25T01:32:11.903Z,1.00
2024-01-25T01:32:44.105Z,1.00
2024-01-25T01:33:16.077Z,1.00
2024-01-25T01:33:48.420Z,1.00
2024-01-25T01:34:20.649Z,1.00
2024-01-25T01:34:53.862Z,1.00
2024-01-25T01:35:26.324Z,1.00
2024-01-25T01:35:58.329Z,1.00
2024-01-25T01:36:30.397Z,1.00
2024-01-25T01:37:02.389Z,1.00
2024-01-25T01:37:40.296Z,1.00
2024-01-25T01:38:14.382Z,1.00
2024-01-25T01:38:46.605Z,1.00
2024-01-25T01:39:19.632Z,1.00
2024-01-25T01:39:52.101Z,1.00
2024-01-25T01:40:29.144Z,1.00
2024-01-25T01:41:01.287Z,1.00
2024-01-25T01:41:33.448Z,1.00
2024-01-25T01:42:10.042Z,1.00
2024-01-25T01:42:44.094Z,1.00
2024-01-25T01:43:19.880Z,1.00
2024-01-25T01:43:55.387Z,1.00
2024-01-25T01:44:28.319Z,1.00
2024-01-25T01:45:03.264Z,1.00
2024-01-25T01:45:36.718Z,1.00
2024-01-25T01:46:13.554Z,1.00
2024-01-25T01:46:46.145Z,1.00
2024-01-25T01:47:19.918Z,1.00
2024-01-25T01:47:53.967Z,1.00
2024-01-25T01:48:27.194Z,1.00
2024-01-25T01:49:00.098Z,1.00
2024-01-25T01:49:33.232Z,1.00
2024-01-25T01:50:07.011Z,1.00
2024-01-25T01:50:39.646Z,1.00
2024-01-25T01:51:13.442Z,1.00
2024-01-25T01:51:46.712Z,1.00
2024-01-25T01:52:19.748Z,1.00
2024-01-25T01:52:53.064Z,1.00
2024-01-25T01:53:24.935Z,1.00
2024-01-25T01:53:57.770Z,1.00
2024-01-25T01:54:29.918Z,1.00
2024-01-25T01:55:02.571Z,1.00
2024-01-25T01:55:34.929Z,1.00
2024-01-25T01:56:07.835Z,1.00
2024-01-25T01:56:42.989Z,1.00
2024-01-25T01:57:15.110Z,1.00
2024-01-25T01:57:48.676Z,1.00
2024-01-25T01:58:22.738Z,1.00
2024-01-25T01:58:55.414Z,1.00
2024-01-25T01:59:27.354Z,1.00
2024-01-25T02:00:00.409Z,1.00
2024-01-25T02:00:32.303Z,1.00
2024-01-25T02:01:04.869Z,1.00
2024-01-25T02:01:36.994Z,1.00
2024-01-25T02:02:09.026Z,1.00
2024-01-25T02:02:40.945Z,1.00
2024-01-25T02:03:12.962Z,1.00
2024-01-25T02:03:44.888Z,1.00
2024-01-25T02:04:17.075Z,1.00
2024-01-25T02:04:49.420Z,1.00
2024-01-25T02:05:21.347Z,1.00
2024-01-25T02:05:54.265Z,1.00
2024-01-25T02:06:26.517Z,1.00
2024-01-25T02:06:58.372Z,1.00
2024-01-25T02:07:31.646Z,1.00
2024-01-25T02:08:04.485Z,1.00
2024-01-25T02:08:36.292Z,1.00
2024-01-25T02:09:08.103Z,1.00
2024-01-25T02:09:42.673Z,1.00
2024-01-25T02:10:14.637Z,1.00
2024-01-25T02:10:46.523Z,1.00
2024-01-25T02:11:19.050Z,1.00
2024-01-25T02:12:00.058Z,1.00
2024-01-25T02:12:31.924Z,1.00
2024-01-25T02:13:04.041Z,1.00
2024-01-25T02:13:37.473Z,1.00
2024-01-25T02:14:12.370Z,1.00
2024-01-25T02:14:45.951Z,1.00
2024-01-25T02:15:17.788Z,1.00
2024-01-25T02:15:50.913Z,1.00
2024-01-25T02:16:23.472Z,1.00
2024-01-25T02:16:58.316Z,1.00
2024-01-25T02:53:56.461Z,1.00
2024-01-25T02:54:31.094Z,1.00
2024-01-25T02:55:03.167Z,1.00
2024-01-25T02:55:35.347Z,1.00
2024-01-25T02:56:07.404Z,1.00
2024-01-25T02:56:39.432Z,1.33
2024-01-25T02:57:11.459Z,2.00
2024-01-25T02:57:43.433Z,2.00
2024-01-25T02:58:16.806Z,2.33
2024-01-25T02:58:48.668Z,3.00
2024-01-25T02:59:20.462Z,3.33
2024-01-25T02:59:52.341Z,4.00
2024-01-25T03:00:24.173Z,5.00
2024-01-25T03:00:56.132Z,5.33
2024-01-25T03:01:29.103Z,6.00
2024-01-25T03:02:01.178Z,7.00
2024-01-25T03:02:33.100Z,7.33
2024-01-25T03:03:05.174Z,8.00
2024-01-25T03:03:37.253Z,8.33
2024-01-25T03:04:09.736Z,9.00
2024-01-25T03:04:41.676Z,9.00
2024-01-25T03:05:14.756Z,9.67
2024-01-25T03:05:46.789Z,10.00
2024-01-25T03:06:18.745Z,10.00
2024-01-25T03:06:50.762Z,10.00
2024-01-25T03:07:23.336Z,10.00
2024-01-25T03:07:55.324Z,10.00
2024-01-25T03:08:27.404Z,10.00
2024-01-25T03:08:59.387Z,10.00
2024-01-25T03:09:31.299Z,10.00
2024-01-25T03:10:04.030Z,10.00
2024-01-25T03:10:35.867Z,10.00
2024-01-25T03:11:07.813Z,10.00
2024-01-25T03:11:39.609Z,10.00
2024-01-25T03:12:11.669Z,10.00
2024-01-25T03:12:43.812Z,10.00
2024-01-25T03:13:15.827Z,9.67
2024-01-25T03:13:47.635Z,9.00
2024-01-25T03:14:22.364Z,9.00
2024-01-25T03:14:54.302Z,9.00
2024-01-25T03:15:26.191Z,9.00
2024-01-25T03:15:58.283Z,9.00
2024-01-25T03:16:30.204Z,9.00
2024-01-25T03:17:02.198Z,8.00
2024-01-25T03:17:34.084Z,8.00
2024-01-25T03:18:06.391Z,8.00
2024-01-25T03:18:38.610Z,8.00
2024-01-25T03:19:11.577Z,7.67
2024-01-25T03:19:43.805Z,7.00
2024-01-25T03:20:16.005Z,7.00
2024-01-25T03:20:48.027Z,7.00
2024-01-25T03:21:19.933Z,7.00
2024-01-25T03:21:51.885Z,6.33
2024-01-25T03:22:24.252Z,6.00
2024-01-25T03:22:57.088Z,6.00
2024-01-25T03:23:29.437Z,6.00
2024-01-25T03:24:01.222Z,5.67
2024-01-25T03:24:33.283Z,5.00
2024-01-25T03:25:05.328Z,5.00
2024-01-25T03:25:37.161Z,5.00
2024-01-25T03:26:09.067Z,5.00
2024-01-25T03:26:40.923Z,4.67
2024-01-25T03:27:14.782Z,4.00
2024-01-25T03:27:46.700Z,4.00
2024-01-25T03:28:20.193Z,4.00
2024-01-25T03:28:54.742Z,4.00
2024-01-25T03:29:26.792Z,4.00
2024-01-25T03:29:58.693Z,4.00
2024-01-25T03:30:30.618Z,3.33
2024-01-25T03:31:02.669Z,3.00
2024-01-25T03:31:34.901Z,3.00
2024-01-25T03:32:06.932Z,3.00
2024-01-25T03:32:38.902Z,3.00
2024-01-25T03:33:12.096Z,3.00
2024-01-25T03:33:44.198Z,3.00
2024-01-25T03:34:16.544Z,3.00
2024-01-25T03:34:48.890Z,3.00
2024-01-25T03:35:20.971Z,3.00
2024-01-25T03:35:53.301Z,3.00
2024-01-25T03:36:25.256Z,3.00
2024-01-25T03:36:57.487Z,2.00
2024-01-25T03:37:29.474Z,2.00
2024-01-25T03:38:01.879Z,2.00
2024-01-25T03:38:35.394Z,2.00
2024-01-25T03:39:08.507Z,2.00
2024-01-25T03:39:40.569Z,2.00
2024-01-25T03:40:12.608Z,2.00
2024-01-25T03:40:45.614Z,2.00
2024-01-25T03:41:17.595Z,2.00
2024-01-25T03:41:49.978Z,2.00
2024-01-25T03:42:24.725Z,2.00
2024-01-25T05:28:30.158Z,1.00
2024-01-25T05:29:02.221Z,1.00
2024-01-25T05:29:34.218Z,1.00
2024-01-25T05:30:06.683Z,1.00
2024-01-25T05:30:38.984Z,1.00
2024-01-25T05:31:14.018Z,1.00
2024-01-25T05:31:46.057Z,1.00
2024-01-25T05:32:17.893Z,1.00
2024-01-25T05:32:55.148Z,1.00
2024-01-25T05:33:27.177Z,1.00
2024-01-25T05:34:00.624Z,1.00
2024-01-25T05:34:32.857Z,1.00
2024-01-25T05:35:05.344Z,1.00
2024-01-25T05:35:37.763Z,1.00
2024-01-25T05:36:10.225Z,1.00
2024-01-25T05:36:42.892Z,1.00
2024-01-25T05:37:15.704Z,1.00
2024-01-25T05:37:47.591Z,1.00
2024-01-25T05:38:19.448Z,1.00
2024-01-25T05:38:52.377Z,1.00
2024-01-25T05:39:24.342Z,1.00
2024-01-25T05:39:56.247Z,1.00
2024-01-25T05:40:29.724Z,1.00
2024-01-25T05:41:02.000Z,1.00
2024-01-25T05:41:33.961Z,1.00
2024-01-25T05:42:05.949Z,1.00
2024-01-25T05:42:37.919Z,1.00
2024-01-25T05:43:11.398Z,1.00
2024-01-25T05:43:43.328Z,1.00
2024-01-25T05:44:15.312Z,1.00
2024-01-25T05:44:47.656Z,1.00
2024-01-25T05:45:21.770Z,1.00
2024-01-25T05:45:53.619Z,1.00
2024-01-25T05:46:25.676Z,1.00
2024-01-25T05:46:57.940Z,1.00
2024-01-25T05:47:29.934Z,1.00
2024-01-25T05:48:02.323Z,1.00
2024-01-25T05:48:38.529Z,1.00
2024-01-25T05:49:10.595Z,1.00
2024-01-25T05:49:42.753Z,1.00
2024-01-25T05:50:15.747Z,1.00
2024-01-25T05:50:48.593Z,1.00
2024-01-25T05:51:20.367Z,1.00
2024-01-25T05:51:52.196Z,1.00
2024-01-25T05:52:25.505Z,1.00
2024-01-25T05:52:57.404Z,1.00
2024-01-25T05:53:29.371Z,1.00
2024-01-25T05:54:01.249Z,1.00
2024-01-25T05:54:33.835Z,1.00
2024-01-25T05:55:10.841Z,1.00
2024-01-25T05:55:42.753Z,1.00
2024-01-25T05:56:14.790Z,1.00
2024-01-25T05:56:46.633Z,1.00
2024-01-25T05:57:18.781Z,1.00
2024-01-25T05:57:50.885Z,1.00
2024-01-25T05:58:23.916Z,1.00
2024-01-25T05:58:55.941Z,1.00
2024-01-25T05:59:27.978Z,1.00
2024-01-25T05:59:59.883Z,1.00
2024-01-25T06:00:31.854Z,1.00
2024-01-25T06:01:04.197Z,1.00
2024-01-25T06:01:36.171Z,1.00
2024-01-25T06:02:15.236Z,1.00
2024-01-25T06:02:47.234Z,1.00
2024-01-25T06:03:19.141Z,1.00
2024-01-25T06:03:51.180Z,1.00
2024-01-25T06:04:23.336Z,1.00
2024-01-25T06:04:55.349Z,1.00
2024-01-25T06:05:28.677Z,1.00
2024-01-25T06:06:01.194Z,1.00
2024-01-25T06:06:33.282Z,1.00
2024-01-25T06:07:05.771Z,1.00
2024-01-25T06:07:37.993Z,1.00
2024-01-25T06:08:10.082Z,1.00
2024-01-25T06:08:42.618Z,1.00
2024-01-25T06:09:18.849Z,1.00
2024-01-25T06:09:51.841Z,1.00
2024-01-25T06:10:25.205Z,1.00
2024-01-25T06:10:57.080Z,1.00
2024-01-25T06:11:28.914Z,1.00
2024-01-25T06:12:00.741Z,1.00
2024-01-25T06:12:32.583Z,1.00
2024-01-25T06:13:04.663Z,1.00
2024-01-25T06:13:36.852Z,1.00
2024-01-25T06:14:09.502Z,1.00
2024-01-25T06:14:41.424Z,1.00
2024-01-25T06:15:13.259Z,1.00
2024-01-25T06:15:45.107Z,1.00
2024-01-25T06:16:17.024Z,1.00
2024-01-25T06:16:49.302Z,1.00
2024-01-25T06:17:21.211Z,1.00
2024-01-25T06:17:53.304Z,1.00
2024-01-25T06:18:25.345Z,1.00
2024-01-25T06:18:57.440Z,1.00
2024-01-25T06:19:29.548Z,1.00
2024-01-25T06:20:01.624Z,1.00
2024-01-25T06:20:34.086Z,1.00
2024-01-25T06:21:06.158Z,1.00
2024-01-25T06:21:42.329Z,1.00
2024-01-25T06:22:14.295Z,1.00
2024-01-25T06:22:46.285Z,1.00
2024-01-25T06:23:18.095Z,1.00
2024-01-25T06:23:49.876Z,1.00
2024-01-25T06:24:21.665Z,1.00
2024-01-25T06:24:53.537Z,1.00
2024-01-25T06:25:25.503Z,1.00
2024-01-25T06:25:57.885Z,1.00
2024-01-25T06:26:32.817Z,1.00
2024-01-25T06:27:04.930Z,1.00
2024-01-25T06:27:36.743Z,1.00
2024-01-25T06:28:11.004Z,1.00
2024-01-25T06:28:45.613Z,1.00
2024-01-25T06:29:17.478Z,1.00
2024-01-25T06:29:51.748Z,1.00
2024-01-25T06:30:23.689Z,1.00
2024-01-25T06:30:59.237Z,1.00
2024-01-25T06:31:34.079Z,1.00
2024-01-25T06:32:11.035Z,1.00
2024-01-25T06:32:46.128Z,1.00
2024-01-25T06:33:18.829Z,1.00
2024-01-25T06:33:52.418Z,1.00
2024-01-25T06:34:24.709Z,1.00
2024-01-25T06:34:56.904Z,1.00
2024-01-25T06:35:29.246Z,1.00
2024-01-25T06:36:01.360Z,1.00
2024-01-25T06:36:33.214Z,1.00
2024-01-25T06:37:05.273Z,1.00
2024-01-25T06:37:38.310Z,1.00
2024-01-25T06:38:11.160Z,1.00
2024-01-25T06:38:44.325Z,1.00
2024-01-25T06:39:18.178Z,1.00
2024-01-25T06:39:50.321Z,1.00
2024-01-25T06:40:22.370Z,1.00
2024-01-25T06:40:54.517Z,1.00
2024-01-25T06:41:26.558Z,1.00
2024-01-25T06:41:59.790Z,1.00
2024-01-25T06:42:31.634Z,1.00
2024-01-25T06:43:03.679Z,1.00
2024-01-25T06:43:38.172Z,1.00
2024-01-25T06:44:10.896Z,1.00
2024-01-25T06:44:42.742Z,1.00
2024-01-25T06:45:14.570Z,1.00
2024-01-25T06:45:47.780Z,1.00
2024-01-25T06:46:19.751Z,1.00
2024-01-25T06:46:51.596Z,1.00
2024-01-25T06:47:24.303Z,1.00
2024-01-25T06:47:56.335Z,1.00
2024-01-25T06:48:28.516Z,1.00
2024-01-25T06:49:00.666Z,1.00
2024-01-25T06:49:32.800Z,1.00
2024-01-25T06:50:04.874Z,1.00
2024-01-25T06:50:37.147Z,1.00
2024-01-25T06:51:09.057Z,1.00
2024-01-25T06:51:40.883Z,1.00
2024-01-25T06:52:13.458Z,1.00
2024-01-25T06:52:46.301Z,1.00
2024-01-25T06:53:18.264Z,1.00
2024-01-25T06:53:50.101Z,1.00
2024-01-25T06:54:22.613Z,1.00
2024-01-25T06:54:54.396Z,1.00
2024-01-25T06:55:28.959Z,1.00
2024-01-25T06:56:01.138Z,1.00
2024-01-25T06:56:33.468Z,1.00
2024-01-25T06:57:05.356Z,1.00
2024-01-25T06:57:37.134Z,1.00
2024-01-25T06:58:09.418Z,1.00
2024-01-25T06:58:41.707Z,1.00
2024-01-25T06:59:14.226Z,1.00
2024-01-25T06:59:46.263Z,1.00
2024-01-25T07:00:18.542Z,1.00
2024-01-25T07:00:50.947Z,1.00
2024-01-25T07:01:24.235Z,1.00
2024-01-25T07:01:57.184Z,1.00
2024-01-25T07:02:29.749Z,1.00
2024-01-25T07:03:02.044Z,1.00
2024-01-25T07:03:35.019Z,1.00
2024-01-25T07:04:15.006Z,1.00
2024-01-25T07:04:54.811Z,1.00
2024-01-25T07:05:28.115Z,1.00
2024-01-25T07:06:00.021Z,1.00
2024-01-25T07:06:38.004Z,1.00
2024-01-25T07:07:13.586Z,1.00
2024-01-25T07:07:45.585Z,1.00
2024-01-25T07:08:17.609Z,1.00
2024-01-25T07:08:50.369Z,1.00
2024-01-25T07:09:23.179Z,1.00
2024-01-25T07:09:55.532Z,1.00
2024-01-25T07:10:29.023Z,1.00
2024-01-25T07:11:03.644Z,1.00
2024-01-25T07:11:35.456Z,1.00
2024-01-25T07:12:08.473Z,1.00
2024-01-25T07:12:40.378Z,1.00
2024-01-25T07:13:12.385Z,1.00
2024-01-25T07:13:44.560Z,1.00
2024-01-25T07:14:19.245Z,1.00
2024-01-25T07:14:51.078Z,1.00
2024-01-25T07:15:23.328Z,1.00
2024-01-25T07:15:56.235Z,1.00
2024-01-25T07:16:28.105Z,1.00
2024-01-25T07:17:00.282Z,1.00
2024-01-25T07:17:32.272Z,1.00
2024-01-25T07:18:05.020Z,1.00
2024-01-25T07:18:37.131Z,1.00
2024-01-25T07:19:09.099Z,1.00
2024-01-25T07:19:41.183Z,1.00
2024-01-25T07:20:16.039Z,1.00
2024-01-25T07:20:48.243Z,1.00
2024-01-25T07:21:21.649Z,1.00
2024-01-25T07:21:53.574Z,1.00
2024-01-25T07:22:28.018Z,1.00
2024-01-25T07:23:03.044Z,1.00
2024-01-25T07:23:35.301Z,1.00
2024-01-25T07:24:10.566Z,1.00
2024-01-25T07:24:44.783Z,1.00
2024-01-25T07:25:16.823Z,1.00
2024-01-25T07:25:48.720Z,1.00
2024-01-25T07:26:25.135Z,1.00
2024-01-25T07:26:59.338Z,1.00
2024-01-25T07:27:32.266Z,1.00
2024-01-25T07:28:06.457Z,1.00
2024-01-25T07:28:38.467Z,1.00
2024-01-25T07:29:10.428Z,1.00
2024-01-25T07:29:45.595Z,1.00
2024-01-25T07:30:17.971Z,1.00
2024-01-25T07:30:50.854Z,1.00
2024-01-25T07:31:24.490Z,1.00
2024-01-25T07:31:56.477Z,1.00
2024-01-25T07:32:28.675Z,1.00
2024-01-25T07:33:00.911Z,1.00
2024-01-25T07:33:37.092Z,1.00
2024-01-25T07:34:09.246Z,1.00
2024-01-25T07:34:41.257Z,1.00
2024-01-25T07:35:14.205Z,1.00
2024-01-25T07:35:49.402Z,1.00
2024-01-25T07:36:25.816Z,1.00
2024-01-25T07:36:58.919Z,1.00
2024-01-25T07:37:33.801Z,1.00
2024-01-25T07:38:06.998Z,1.00
2024-01-25T07:38:38.792Z,1.00
2024-01-25T07:39:12.390Z,1.00
2024-01-25T07:39:44.167Z,1.00
2024-01-25T07:40:16.640Z,1.00
2024-01-25T07:40:48.558Z,1.00
2024-01-25T07:41:20.378Z,1.00
2024-01-25T07:41:53.034Z,1.00
2024-01-25T07:42:27.700Z,1.00
2024-01-25T07:43:01.976Z,1.00
2024-01-25T07:43:34.222Z,1.00
2024-01-25T07:44:07.305Z,1.00
2024-01-25T07:44:39.442Z,1.00
2024-01-25T07:45:13.912Z,1.00
2024-01-25T07:45:45.949Z,1.00
2024-01-25T07:46:22.603Z,1.00
2024-01-25T07:46:55.838Z,1.00
2024-01-25T07:47:27.639Z,1.00
2024-01-25T07:48:08.521Z,1.00
2024-01-25T07:48:44.351Z,1.00
2024-01-25T07:49:17.182Z,1.00
2024-01-25T07:49:52.211Z,1.00
2024-01-25T07:50:24.645Z,1.00
2024-01-25T07:50:57.931Z,1.00
2024-01-25T07:51:31.658Z,1.00
2024-01-25T07:52:03.749Z,1.00
2024-01-25T07:52:35.782Z,1.00
2024-01-25T07:53:08.256Z,1.00
2024-01-25T07:53:41.264Z,1.00
2024-01-25T07:54:15.318Z,1.00
2024-01-25T07:54:47.980Z,1.00
2024-01-25T07:55:19.987Z,1.00
2024-01-25T07:55:52.682Z,1.00
2024-01-25T07:56:24.575Z,1.00
2024-01-25T07:56:56.459Z,1.00
2024-01-25T07:57:28.407Z,1.00
2024-01-25T07:58:00.371Z,1.00
2024-01-25T07:58:32.560Z,1.00
2024-01-25T07:59:05.632Z,1.00
2024-01-25T07:59:37.520Z,1.00
2024-01-25T08:00:10.604Z,1.00
2024-01-25T08:00:43.783Z,1.00
2024-01-25T08:01:18.784Z,1.00
2024-01-25T08:01:50.806Z,1.00
2024-01-25T08:02:26.279Z,1.00
2024-01-25T08:03:01.161Z,1.00
2024-01-25T08:03:34.150Z,1.00
2024-01-25T08:04:06.728Z,1.00
2024-01-25T08:04:38.840Z,1.00
2024-01-25T08:05:13.786Z,1.00
2024-01-25T08:05:51.019Z,1.00
2024-01-25T08:06:24.954Z,1.00
2024-01-25T08:06:56.984Z,1.00
2024-01-25T08:07:30.122Z,1.00
2024-01-25T08:08:02.163Z,1.00
2024-01-25T08:08:33.972Z,1.00
2024-01-25T08:09:05.802Z,1.67
2024-01-25T08:09:37.713Z,2.00
2024-01-25T08:10:09.865Z,2.00
2024-01-25T08:10:42.497Z,2.00
2024-01-25T08:11:14.452Z,2.00
2024-01-25T08:11:47.250Z,2.00
2024-01-25T08:12:19.478Z,2.00
2024-01-25T08:12:55.806Z,2.00
2024-01-25T08:13:38.778Z,2.00
2024-01-25T08:14:10.730Z,2.00
2024-01-25T08:14:44.278Z,2.00
2024-01-25T08:15:16.058Z,2.00
2024-01-25T08:15:47.863Z,2.00
2024-01-25T08:16:20.999Z,2.00
2024-01-25T08:16:53.197Z,2.00
2024-01-25T08:17:25.053Z,2.00
2024-01-25T08:17:57.001Z,2.00
2024-01-25T08:18:31.860Z,2.00
2024-01-25T08:19:05.058Z,2.00
2024-01-25T08:19:37.587Z,2.00
2024-01-25T08:20:10.962Z,2.00
2024-01-25T08:20:43.315Z,2.00
2024-01-25T08:21:15.852Z,2.00
2024-01-25T08:21:48.204Z,2.00
2024-01-25T08:22:23.223Z,2.00
2024-01-25T08:22:55.812Z,2.00
2024-01-25T08:23:27.681Z,2.00
2024-01-25T08:24:03.814Z,2.00
2024-01-25T08:24:35.645Z,2.00
2024-01-25T08:25:07.676Z,2.00
2024-01-25T08:25:40.545Z,2.00
2024-01-25T08:26:13.920Z,2.00
2024-01-25T08:26:46.636Z,2.00
2024-01-25T08:27:18.797Z,2.00
2024-01-25T08:35:42.003Z,2.00
2024-01-25T08:36:14.629Z,2.00
2024-01-25T08:36:46.428Z,2.00
2024-01-25T08:37:18.209Z,2.00
2024-01-25T08:37:50.779Z,2.00
2024-01-25T08:38:22.651Z,2.00
2024-01-25T08:38:54.417Z,2.00
2024-01-25T08:39:26.238Z,2.00
2024-01-25T08:39:58.068Z,2.00
2024-01-25T08:40:31.413Z,2.00
2024-01-25T08:41:03.475Z,2.00
2024-01-25T08:41:35.833Z,2.00
2024-01-25T08:42:11.460Z,1.33
2024-01-25T08:42:43.728Z,1.00
2024-01-25T08:43:16.070Z,1.00
2024-01-25T08:43:49.458Z,1.00
2024-01-25T08:44:21.234Z,1.00
2024-01-25T08:44:53.144Z,1.00
2024-01-25T08:45:25.260Z,1.00
2024-01-25T08:46:06.738Z,1.00
2024-01-25T08:46:39.512Z,1.00
2024-01-25T08:47:11.830Z,1.00
2024-01-25T08:47:47.891Z,1.00
2024-01-25T08:48:20.011Z,1.00
2024-01-25T08:48:52.774Z,1.00
2024-01-25T08:49:25.035Z,1.00
2024-01-25T08:49:57.523Z,1.00
2024-01-25T08:50:29.739Z,1.00
2024-01-25T08:51:03.794Z,1.00
2024-01-25T08:51:36.833Z,1.00
2024-01-25T08:52:09.293Z,1.00
2024-01-25T08:52:42.450Z,1.00
2024-01-25T08:53:15.327Z,1.00
2024-01-25T08:53:47.231Z,1.00
2024-01-25T08:54:19.024Z,1.00
2024-01-25T08:54:52.982Z,1.00
2024-01-25T08:55:25.100Z,1.00
2024-01-25T08:55:58.024Z,1.00
2024-01-25T08:56:29.799Z,1.00
2024-01-25T08:57:01.721Z,1.00
2024-01-25T08:57:33.794Z,1.00
2024-01-25T08:58:05.744Z,1.00
2024-01-25T08:58:37.543Z,1.00
2024-01-25T08:59:09.357Z,1.00
2024-01-25T08:59:41.136Z,1.00
2024-01-25T09:00:13.221Z,1.00
2024-01-25T09:00:45.378Z,1.00
2024-01-25T09:01:17.542Z,1.00
2024-01-25T09:01:49.525Z,1.00
2024-01-25T09:03:09.873Z,1.00
2024-01-25T09:03:42.611Z,1.00
2024-01-25T09:04:15.676Z,1.00
2024-01-25T09:04:49.271Z,1.00
2024-01-25T09:05:21.711Z,1.00
2024-01-25T09:05:53.893Z,1.00
2024-01-25T09:06:26.501Z,1.00
2024-01-25T09:06:58.727Z,1.00
2024-01-25T09:07:30.998Z,1.00
2024-01-25T09:08:04.887Z,1.00
2024-01-25T09:08:36.879Z,1.00
2024-01-25T09:09:09.995Z,1.00
2024-01-25T09:09:42.004Z,1.00
2024-01-25T09:10:15.535Z,1.00
2024-01-25T09:10:47.464Z,1.00
2024-01-25T09:11:21.177Z,1.00
2024-01-25T09:11:52.977Z,1.00
2024-01-25T09:12:24.857Z,1.00
2024-01-25T09:12:56.927Z,1.00
2024-01-25T09:13:30.997Z,1.00
2024-01-25T09:14:02.894Z,1.00
2024-01-25T09:14:34.667Z,1.00
2024-01-25T09:15:06.915Z,1.00
2024-01-25T09:15:38.873Z,1.00
2024-01-25T09:16:10.719Z,1.00
2024-01-25T09:16:42.654Z,1.00
2024-01-25T09:17:15.817Z,1.00
2024-01-25T09:17:47.682Z,1.00
2024-01-25T09:18:20.726Z,1.00
2024-01-25T09:18:52.748Z,1.00
2024-01-25T09:19:25.304Z,1.00
2024-01-25T09:20:00.498Z,1.00
2024-01-25T09:20:32.544Z,1.00
2024-01-25T09:21:04.493Z,1.00
2024-01-25T09:21:39.228Z,1.00
2024-01-25T09:22:11.398Z,1.00
2024-01-25T09:22:43.730Z,1.00
2024-01-25T09:23:19.066Z,1.00
2024-01-25T09:23:50.946Z,1.00
2024-01-25T09:24:24.865Z,1.00
2024-01-25T09:24:56.831Z,1.00
2024-01-25T09:25:28.760Z,1.00
2024-01-25T09:26:00.871Z,1.00
2024-01-25T09:26:32.760Z,1.00
2024-01-25T09:27:05.166Z,1.00
2024-01-25T09:27:38.108Z,1.00
2024-01-25T09:28:10.452Z,1.00
2024-01-25T09:28:42.584Z,1.00
2024-01-25T09:29:14.454Z,1.00
2024-01-25T09:29:46.620Z,1.00
2024-01-25T09:30:18.536Z,1.00
2024-01-25T09:30:50.466Z,1.00
2024-01-25T09:31:25.003Z,1.00
2024-01-25T09:31:56.936Z,1.00
2024-01-25T09:32:28.986Z,1.00
2024-01-25T09:33:01.017Z,1.00
2024-01-25T09:33:33.104Z,1.00
2024-01-25T09:34:05.240Z,1.00
2024-01-25T09:34:40.738Z,1.00
2024-01-25T09:35:13.346Z,1.00
2024-01-25T09:35:48.381Z,1.00
2024-01-25T09:36:21.116Z,1.00
2024-01-25T09:36:53.232Z,1.00
2024-01-25T09:37:25.935Z,1.00
2024-01-25T09:37:58.004Z,1.00
2024-01-25T09:38:29.768Z,1.00
2024-01-25T09:39:01.677Z,1.00
2024-01-25T09:39:34.163Z,1.00
2024-01-25T09:40:07.152Z,1.00
2024-01-25T09:40:39.204Z,1.00
2024-01-25T09:41:11.405Z,1.00
2024-01-25T09:41:45.105Z,1.00
2024-01-25T09:42:17.765Z,1.00
2024-01-25T09:42:52.264Z,1.00
2024-01-25T09:43:24.717Z,1.00
2024-01-25T09:43:56.567Z,1.00
2024-01-25T09:44:28.495Z,1.00
2024-01-25T09:45:00.331Z,1.00
2024-01-25T09:45:32.732Z,1.00
2024-01-25T09:46:06.973Z,1.00
2024-01-25T09:46:39.690Z,1.00
2024-01-25T09:47:12.324Z,1.00
2024-01-25T09:47:46.001Z,1.00
2024-01-25T09:48:18.992Z,1.00